Time;durP1;ratioP1;P1;durP2;ratioP2;P2;SDS_P1;SDS_P2;PMS_P1;PMS_P2;Temp;Humidity;BMP_temperature;BMP_pressure;BME280_temperature;BME280_humidity;BME280_pressure;Samples;Min_cycle;Max_cycle;Signal;HPM_P1;HPM_P2
2024/02/20 00:01:56;;;;;;;12.95;8.90;;;16.50;73.90;;;;;;5018503;28;20038;-78
2024/02/20 00:04:21;;;;;;;12.90;8.23;;;16.50;73.90;;;;;;5004350;28;20037;-79
2024/02/20 00:06:47;;;;;;;12.50;8.68;;;16.40;73.90;;;;;;5007649;28;20099;-78
2024/02/20 00:09:12;;;;;;;11.40;8.73;;;16.40;74.80;;;;;;5015784;28;20092;-78
2024/02/20 00:11:38;;;;;;;13.73;8.82;;;16.40;74.00;;;;;;5017525;28;20707;-78
2024/02/20 00:14:04;;;;;;;10.85;7.97;;;16.40;74.20;;;;;;5004723;28;20049;-78
2024/02/20 00:16:29;;;;;;;10.15;8.43;;;16.30;74.10;;;;;;5002107;28;20094;-78
2024/02/20 00:18:55;;;;;;;12.68;8.77;;;16.30;74.20;;;;;;5001732;28;20126;-78
2024/02/20 00:21:21;;;;;;;15.95;9.07;;;16.30;74.30;;;;;;5004910;28;20511;-78
2024/02/20 00:23:46;;;;;;;12.30;9.60;;;16.30;74.20;;;;;;5004505;28;20034;-78
2024/02/20 00:26:12;;;;;;;12.38;8.35;;;16.30;75.10;;;;;;5018236;28;20092;-78
2024/02/20 00:28:40;;;;;;;10.20;8.55;;;16.30;74.40;;;;;;5003165;28;20104;-78
2024/02/20 00:31:06;;;;;;;10.07;7.75;;;16.30;74.40;;;;;;5008150;28;20038;-77
2024/02/20 00:33:32;;;;;;;9.65;7.80;;;16.20;74.40;;;;;;5019236;28;20057;-77
2024/02/20 00:35:58;;;;;;;9.07;7.70;;;16.20;74.50;;;;;;5004491;28;20034;-77
2024/02/20 00:38:24;;;;;;;11.13;8.18;;;16.20;74.50;;;;;;5006523;28;20056;-77
2024/02/20 00:40:49;;;;;;;10.00;7.40;;;16.20;74.50;;;;;;4988173;28;20042;-77
2024/02/20 00:43:15;;;;;;;9.75;7.97;;;16.20;74.50;;;;;;5005459;28;20083;-77
2024/02/20 00:45:40;;;;;;;11.95;8.05;;;16.20;74.70;;;;;;5005260;28;20042;-77
2024/02/20 00:48:06;;;;;;;10.18;7.32;;;16.20;74.70;;;;;;5018151;28;20492;-77
2024/02/20 00:50:32;;;;;;;9.30;7.47;;;16.20;74.70;;;;;;5003470;28;20037;-77
2024/02/20 00:52:58;;;;;;;8.20;7.00;;;16.20;74.70;;;;;;5017760;28;20075;-77
2024/02/20 00:55:23;;;;;;;10.32;7.30;;;16.10;74.70;;;;;;4997913;28;20125;-77
2024/02/20 00:57:49;;;;;;;7.40;6.68;;;16.20;74.80;;;;;;5006594;28;20065;-77
2024/02/20 01:00:15;;;;;;;8.90;7.30;;;16.10;74.70;;;;;;5019382;28;20034;-78
2024/02/20 01:02:40;;;;;;;9.55;7.15;;;16.10;74.70;;;;;;5003584;28;20046;-78
2024/02/20 01:05:08;;;;;;;9.43;7.38;;;16.10;74.70;;;;;;5014600;28;20049;-78
2024/02/20 01:07:33;;;;;;;7.60;6.38;;;16.10;74.80;;;;;;5002881;28;20082;-78
2024/02/20 01:09:59;;;;;;;10.50;7.13;;;16.10;74.70;;;;;;4998698;28;20118;-77
2024/02/20 01:12:24;;;;;;;9.77;7.50;;;16.10;75.60;;;;;;4999620;28;20070;-79
2024/02/20 01:14:50;;;;;;;8.43;7.22;;;16.10;74.80;;;;;;5014112;28;20042;-78
2024/02/20 01:17:15;;;;;;;11.07;7.55;;;16.00;74.70;;;;;;5014694;28;20049;-78
2024/02/20 01:19:41;;;;;;;9.38;6.80;;;16.10;74.90;;;;;;4987531;28;20042;-78
2024/02/20 01:22:06;;;;;;;7.32;6.60;;;16.00;74.80;;;;;;4988645;28;20809;-78
2024/02/20 01:24:32;;;;;;;8.23;6.32;;;16.00;74.80;;;;;;5003427;28;20133;-77
2024/02/20 01:26:58;;;;;;;9.05;6.53;;;16.00;74.80;;;;;;5002797;28;20507;-77
2024/02/20 01:29:23;;;;;;;8.18;6.32;;;16.00;74.90;;;;;;5003171;28;20064;-77
2024/02/20 01:31:53;;;;;;;7.13;6.40;;;16.00;74.90;;;;;;5003911;28;20081;-77
2024/02/20 01:34:18;;;;;;;7.68;6.32;;;15.90;74.90;;;;;;4986657;28;20046;-77
2024/02/20 01:36:44;;;;;;;6.90;6.20;;;16.00;75.00;;;;;;4971076;28;20554;-77
2024/02/20 01:39:10;;;;;;;6.75;5.78;;;16.00;74.90;;;;;;4998356;28;20035;-77
2024/02/20 01:41:35;;;;;;;6.07;5.47;;;15.90;74.70;;;;;;4983716;28;20062;-77
2024/02/20 01:44:01;;;;;;;7.25;5.60;;;15.90;74.90;;;;;;5012616;28;20050;-77
2024/02/20 01:46:28;;;;;;;5.57;5.07;;;15.90;74.90;;;;;;4985058;28;20049;-77
2024/02/20 01:48:54;;;;;;;6.72;5.60;;;16.00;75.00;;;;;;5004932;28;20065;-77
2024/02/20 01:51:22;;;;;;;6.47;5.85;;;15.90;75.00;;;;;;5015336;28;20042;-77
2024/02/20 01:53:47;;;;;;;6.15;5.55;;;15.90;74.90;;;;;;5016289;28;20050;-76
2024/02/20 01:56:14;;;;;;;5.68;5.03;;;15.90;75.00;;;;;;5020291;28;20427;-77
2024/02/20 01:58:40;;;;;;;5.57;5.07;;;15.90;74.60;;;;;;5001085;28;20406;-76
2024/02/20 02:01:06;;;;;;;6.28;5.40;;;15.90;74.60;;;;;;5002503;28;20533;-76
2024/02/20 02:03:33;;;;;;;6.68;5.15;;;15.90;75.10;;;;;;4987098;28;20556;-77
2024/02/20 02:05:58;;;;;;;8.35;5.25;;;15.90;74.90;;;;;;5017208;28;20524;-76
2024/02/20 02:08:24;;;;;;;6.32;4.60;;;15.90;74.90;;;;;;5002619;28;20045;-77
2024/02/20 02:10:49;;;;;;;5.78;5.15;;;15.90;74.60;;;;;;5018344;28;20078;-77
2024/02/20 02:13:15;;;;;;;4.90;4.47;;;15.90;74.60;;;;;;5002080;28;20524;-77
2024/02/20 02:15:41;;;;;;;5.10;4.63;;;15.80;74.60;;;;;;4997797;28;20101;-77
2024/02/20 02:18:07;;;;;;;5.43;4.93;;;15.90;74.60;;;;;;4981318;28;20054;-78
2024/02/20 02:20:32;;;;;;;6.47;5.03;;;15.80;74.50;;;;;;5016329;28;20053;-77
2024/02/20 02:22:58;;;;;;;5.10;4.50;;;15.80;74.50;;;;;;4995247;28;20041;-77
2024/02/20 02:25:25;;;;;;;7.15;4.65;;;15.80;74.50;;;;;;5012136;28;20535;-78
2024/02/20 02:27:51;;;;;;;5.05;4.63;;;15.80;74.50;;;;;;4970356;28;20080;-77
2024/02/20 02:30:17;;;;;;;6.35;4.43;;;15.80;74.50;;;;;;5018762;28;20716;-77
2024/02/20 02:32:43;;;;;;;5.38;4.60;;;15.80;74.50;;;;;;5014469;28;20581;-77
2024/02/20 02:35:09;;;;;;;4.93;4.43;;;15.80;74.50;;;;;;4986924;28;20121;-77
2024/02/20 02:37:35;;;;;;;4.97;4.47;;;15.80;74.70;;;;;;4983145;28;20058;-78
2024/02/20 02:40:04;;;;;;;4.78;3.92;;;15.80;74.60;;;;;;4997368;28;20504;-77
2024/02/20 02:42:30;;;;;;;4.88;4.10;;;15.80;74.60;;;;;;4999890;28;20123;-78
2024/02/20 02:44:55;;;;;;;4.70;4.38;;;15.70;74.60;;;;;;4998712;28;20054;-78
2024/02/20 02:47:21;;;;;;;4.63;4.20;;;15.80;74.70;;;;;;4997637;28;20208;-78
2024/02/20 02:49:46;;;;;;;4.85;4.53;;;15.80;74.60;;;;;;5001753;28;20046;-78
2024/02/20 02:52:12;;;;;;;4.15;3.78;;;15.80;74.60;;;;;;5000011;28;20060;-78
2024/02/20 02:54:37;;;;;;;4.70;4.30;;;15.80;74.70;;;;;;4999368;28;20037;-78
2024/02/20 02:57:03;;;;;;;4.28;3.88;;;15.80;74.70;;;;;;5003419;28;20099;-78
2024/02/20 02:59:29;;;;;;;4.53;4.10;;;15.70;74.60;;;;;;5017427;28;20547;-78
2024/02/20 03:01:54;;;;;;;4.38;3.97;;;15.70;74.60;;;;;;5000609;28;20506;-78
2024/02/20 03:04:20;;;;;;;4.93;4.20;;;15.70;74.70;;;;;;5007257;28;20124;-77
2024/02/20 03:06:46;;;;;;;4.13;3.72;;;15.70;74.70;;;;;;4973786;28;20072;-77
2024/02/20 03:09:12;;;;;;;4.25;3.85;;;15.70;74.60;;;;;;4989404;28;20061;-77
2024/02/20 03:11:41;;;;;;;4.15;3.72;;;15.70;74.70;;;;;;4987934;28;20511;-77
2024/02/20 03:14:10;;;;;;;4.35;3.55;;;15.70;74.60;;;;;;5002117;28;20042;-78
2024/02/20 03:16:36;;;;;;;4.40;4.00;;;15.70;74.60;;;;;;5005649;28;20125;-79
2024/02/20 03:19:01;;;;;;;4.28;3.88;;;15.70;74.60;;;;;;5002941;28;20125;-78
2024/02/20 03:21:27;;;;;;;3.63;3.33;;;15.70;74.70;;;;;;4997573;28;20066;-78
2024/02/20 03:23:53;;;;;;;4.25;3.85;;;15.70;74.70;;;;;;5002569;28;20045;-77
2024/02/20 03:26:19;;;;;;;3.97;3.65;;;15.70;74.70;;;;;;5018554;28;20042;-78
2024/02/20 03:28:45;;;;;;;3.60;3.40;;;15.70;74.80;;;;;;5003686;28;20053;-78
2024/02/20 03:31:11;;;;;;;3.05;2.85;;;15.70;74.70;;;;;;5003358;28;20034;-77
2024/02/20 03:33:37;;;;;;;3.72;3.42;;;15.70;74.80;;;;;;4984053;28;20100;-77
2024/02/20 03:36:03;;;;;;;3.80;3.50;;;15.70;74.70;;;;;;5019441;28;20118;-77
2024/02/20 03:38:28;;;;;;;3.65;3.35;;;15.70;74.60;;;;;;5006180;28;20575;-78
2024/02/20 03:40:54;;;;;;;3.45;3.03;;;15.70;74.70;;;;;;5016615;28;20048;-78
2024/02/20 03:43:20;;;;;;;3.80;3.38;;;15.70;74.70;;;;;;5017737;28;20578;-77
2024/02/20 03:45:45;;;;;;;3.38;3.17;;;15.70;74.70;;;;;;5007889;28;20045;-78
2024/02/20 03:48:11;;;;;;;3.58;3.28;;;15.70;74.60;;;;;;5001526;28;20511;-78
2024/02/20 03:50:36;;;;;;;3.72;3.42;;;15.70;74.60;;;;;;5003446;28;20041;-78
2024/02/20 03:53:02;;;;;;;3.58;3.28;;;15.70;74.60;;;;;;5000975;28;20038;-78
2024/02/20 03:55:28;;;;;;;3.90;3.47;;;15.70;74.60;;;;;;5023502;28;20049;-78
2024/02/20 03:57:55;;;;;;;3.47;3.17;;;15.60;74.60;;;;;;5004404;28;20045;-78
2024/02/20 04:00:24;;;;;;;3.70;3.40;;;15.60;75.30;;;;;;5001288;28;20157;-78
2024/02/20 04:02:49;;;;;;;3.53;3.22;;;15.60;74.60;;;;;;4985209;28;20050;-79
2024/02/20 04:05:15;;;;;;;3.88;3.50;;;15.60;74.60;;;;;;4990517;28;20046;-78
2024/02/20 04:07:41;;;;;;;3.33;3.03;;;15.60;74.60;;;;;;4989352;28;20030;-79
2024/02/20 04:10:08;;;;;;;3.25;2.95;;;15.60;74.60;;;;;;4974176;28;20061;-77
2024/02/20 04:12:33;;;;;;;2.83;2.63;;;15.60;74.60;;;;;;5019885;28;20125;-78
2024/02/20 04:14:59;;;;;;;3.38;3.10;;;15.60;74.70;;;;;;5005793;28;20519;-78
2024/02/20 04:17:24;;;;;;;3.38;3.17;;;15.60;74.80;;;;;;5016813;28;20041;-77
2024/02/20 04:19:50;;;;;;;2.80;2.60;;;15.60;74.70;;;;;;5005133;28;20057;-78
2024/02/20 04:22:15;;;;;;;3.65;2.78;;;15.60;74.70;;;;;;5015948;28;20065;-79
2024/02/20 04:24:41;;;;;;;3.03;2.63;;;15.60;75.50;;;;;;4984783;28;21553;-79
2024/02/20 04:27:06;;;;;;;2.70;2.50;;;15.60;74.70;;;;;;5017256;28;20092;-77
2024/02/20 04:29:32;;;;;;;2.70;2.50;;;15.60;74.80;;;;;;4989771;28;20088;-78
2024/02/20 04:31:57;;;;;;;3.08;2.83;;;15.60;74.70;;;;;;5001725;28;20045;-77
2024/02/20 04:34:23;;;;;;;2.80;2.55;;;15.60;74.80;;;;;;5002302;28;20041;-77
2024/02/20 04:36:49;;;;;;;3.05;2.85;;;15.60;74.90;;;;;;4999140;28;20062;-77
2024/02/20 04:39:15;;;;;;;2.72;2.53;;;15.60;74.90;;;;;;5019960;28;20052;-77
2024/02/20 04:41:40;;;;;;;2.58;2.38;;;15.60;74.80;;;;;;5014057;28;20030;-78
2024/02/20 04:44:06;;;;;;;2.40;2.20;;;15.60;75.00;;;;;;5004206;28;20141;-78
2024/02/20 04:46:31;;;;;;;2.53;2.33;;;15.60;74.90;;;;;;5002969;28;20077;-77
2024/02/20 04:48:57;;;;;;;2.70;2.50;;;15.60;74.90;;;;;;4986499;28;20049;-78
2024/02/20 04:51:23;;;;;;;2.45;2.25;;;15.60;74.90;;;;;;5016652;28;20053;-78
2024/02/20 04:53:48;;;;;;;2.30;2.10;;;15.50;74.90;;;;;;5002932;28;20527;-77
2024/02/20 04:56:14;;;;;;;2.70;2.50;;;15.60;74.90;;;;;;5002764;28;20050;-77
2024/02/20 04:58:39;;;;;;;2.45;2.25;;;15.60;75.10;;;;;;4987816;28;20445;-77
2024/02/20 05:01:05;;;;;;;2.33;2.20;;;15.60;75.00;;;;;;5007710;28;20125;-77
2024/02/20 05:03:31;;;;;;;2.50;2.08;;;15.50;74.90;;;;;;4999351;28;20516;-76
2024/02/20 05:05:56;;;;;;;2.75;2.42;;;15.50;74.90;;;;;;5015963;28;20121;-77
2024/02/20 05:08:22;;;;;;;2.20;2.10;;;15.50;75.10;;;;;;5005302;28;20092;-77
2024/02/20 05:10:47;;;;;;;2.30;2.17;;;15.50;75.00;;;;;;4985135;28;20081;-77
2024/02/20 05:13:13;;;;;;;2.15;1.95;;;15.50;75.00;;;;;;4990117;28;20496;-77
2024/02/20 05:15:38;;;;;;;2.25;2.08;;;15.50;75.00;;;;;;4989116;28;20069;-78
2024/02/20 05:18:05;;;;;;;2.40;2.30;;;15.50;75.10;;;;;;5002810;28;20652;-77
2024/02/20 05:20:30;;;;;;;2.20;2.00;;;15.50;75.10;;;;;;5017708;28;20054;-78
2024/02/20 05:22:56;;;;;;;2.10;2.00;;;15.50;75.00;;;;;;5002433;28;20589;-77
2024/02/20 05:25:21;;;;;;;2.42;2.33;;;15.50;75.10;;;;;;4988754;28;20038;-78
2024/02/20 05:27:47;;;;;;;2.28;2.10;;;15.50;75.10;;;;;;5004089;28;20042;-78
2024/02/20 05:30:13;;;;;;;2.63;2.08;;;15.50;75.10;;;;;;5015142;28;20216;-78
2024/02/20 05:32:38;;;;;;;2.75;2.55;;;15.50;75.10;;;;;;4984584;28;20061;-78
2024/02/20 05:35:05;;;;;;;2.33;2.13;;;15.50;75.10;;;;;;5015425;28;20184;-78
2024/02/20 05:37:31;;;;;;;2.00;1.90;;;15.50;75.20;;;;;;5004122;28;20062;-77
2024/02/20 05:39:56;;;;;;;2.33;2.17;;;15.50;75.10;;;;;;5006090;28;20533;-77
2024/02/20 05:42:22;;;;;;;2.38;2.05;;;15.50;75.10;;;;;;5016908;28;20046;-78
2024/02/20 05:44:48;;;;;;;2.17;2.00;;;15.50;75.10;;;;;;5002878;28;20042;-77
2024/02/20 05:47:13;;;;;;;2.33;2.13;;;15.50;75.10;;;;;;5020688;28;20049;-77
2024/02/20 05:49:40;;;;;;;2.00;1.90;;;15.50;75.20;;;;;;4971368;28;20120;-78
2024/02/20 05:52:06;;;;;;;2.08;1.98;;;15.50;75.10;;;;;;5002652;28;20050;-78
2024/02/20 05:54:33;;;;;;;2.17;2.08;;;15.50;75.10;;;;;;4998960;28;20049;-77
2024/02/20 05:56:58;;;;;;;2.45;2.25;;;15.50;75.10;;;;;;5004734;28;20050;-77
2024/02/20 05:59:24;;;;;;;2.15;2.05;;;15.40;75.10;;;;;;5015022;28;20104;-77
2024/02/20 06:01:50;;;;;;;1.98;1.88;;;15.40;75.10;;;;;;5015334;28;20030;-78
2024/02/20 06:04:15;;;;;;;2.40;1.98;;;15.50;75.20;;;;;;4999115;28;20042;-78
2024/02/20 06:06:42;;;;;;;2.15;1.50;;;15.40;75.10;;;;;;5000303;28;20042;-77
2024/02/20 06:09:08;;;;;;;3.33;2.17;;;15.40;75.20;;;;;;4999919;28;20045;-76
2024/02/20 06:11:34;;;;;;;1.90;1.80;;;15.40;75.10;;;;;;5005611;28;20038;-76
2024/02/20 06:14:01;;;;;;;1.83;1.73;;;15.50;75.20;;;;;;5000176;28;20500;-77
2024/02/20 06:16:27;;;;;;;1.73;1.63;;;15.40;75.40;;;;;;4997377;28;20045;-77
2024/02/20 06:18:53;;;;;;;2.83;1.92;;;15.50;75.40;;;;;;4988482;28;20048;-77
2024/02/20 06:21:19;;;;;;;1.60;1.50;;;15.50;75.10;;;;;;5001754;28;20751;-78
2024/02/20 06:23:44;;;;;;;1.60;1.50;;;15.50;75.10;;;;;;4997610;28;20088;-79
2024/02/20 06:26:10;;;;;;;2.83;1.90;;;15.50;75.10;;;;;;5000597;28;20046;-77
2024/02/20 06:28:36;;;;;;;1.88;1.70;;;15.50;75.10;;;;;;5010755;28;20038;-77
2024/02/20 06:31:03;;;;;;;1.88;1.77;;;15.50;75.30;;;;;;5004769;28;20041;-78
2024/02/20 06:33:30;;;;;;;1.98;1.88;;;15.50;75.20;;;;;;5003055;28;20115;-77
2024/02/20 06:35:56;;;;;;;1.60;1.38;;;15.50;75.40;;;;;;4998275;28;20065;-77
2024/02/20 06:38:21;;;;;;;1.73;1.63;;;15.50;75.40;;;;;;4997600;28;20069;-77
2024/02/20 06:40:47;;;;;;;1.95;1.80;;;15.50;75.40;;;;;;4985003;28;20523;-77
2024/02/20 06:43:12;;;;;;;1.70;1.60;;;15.50;75.40;;;;;;5005863;28;20111;-78
2024/02/20 06:45:38;;;;;;;2.00;1.90;;;15.50;76.30;;;;;;4986848;28;20052;-78
2024/02/20 06:48:04;;;;;;;2.38;1.92;;;15.50;75.90;;;;;;4998077;28;20448;-77
2024/02/20 06:50:29;;;;;;;2.25;2.05;;;15.50;76.80;;;;;;4983843;28;20038;-77
2024/02/20 06:52:55;;;;;;;3.22;2.10;;;15.50;76.80;;;;;;4982647;28;20041;-77
2024/02/20 06:55:20;;;;;;;2.45;1.83;;;15.50;76.70;;;;;;4998912;28;20057;-77
2024/02/20 06:57:46;;;;;;;1.85;1.40;;;15.50;77.00;;;;;;4665984;28;10000525;-78
2024/02/20 07:00:14;;;;;;;2.05;1.65;;;15.50;77.00;;;;;;4967024;28;20109;-77
2024/02/20 07:02:43;;;;;;;3.42;1.73;;;15.50;78.10;;;;;;4981204;28;20073;-76
2024/02/20 07:05:10;;;;;;;3.22;1.90;;;15.50;77.30;;;;;;5013310;28;20053;-76
2024/02/20 07:07:36;;;;;;;1.95;1.40;;;15.50;77.30;;;;;;4994999;28;20105;-76
2024/02/20 07:10:03;;;;;;;3.58;1.48;;;15.50;77.60;;;;;;5000587;28;20053;-77
2024/02/20 07:12:28;;;;;;;1.60;1.50;;;15.50;77.60;;;;;;4995435;28;20065;-76
2024/02/20 07:14:54;;;;;;;1.40;1.30;;;15.50;78.30;;;;;;4997485;28;20128;-77
2024/02/20 07:17:20;;;;;;;2.60;1.42;;;15.60;77.70;;;;;;4999971;28;20038;-76
2024/02/20 07:19:45;;;;;;;1.83;1.73;;;15.60;77.70;;;;;;4993408;28;20559;-77
2024/02/20 07:22:11;;;;;;;1.42;1.33;;;15.60;77.30;;;;;;4982366;28;20041;-77
2024/02/20 07:24:36;;;;;;;2.25;1.48;;;15.60;77.10;;;;;;4998952;28;20038;-77
2024/02/20 07:27:02;;;;;;;2.75;1.70;;;15.70;77.10;;;;;;5014457;28;20054;-76
2024/02/20 07:29:28;;;;;;;1.70;1.52;;;15.60;77.10;;;;;;5006549;28;20034;-76
2024/02/20 07:31:55;;;;;;;1.70;0.90;;;15.60;76.90;;;;;;4976590;28;20046;-77
2024/02/20 07:34:20;;;;;;;1.50;1.40;;;15.60;76.90;;;;;;4999036;28;20377;-76
2024/02/20 07:36:48;;;;;;;2.17;1.45;;;15.70;77.00;;;;;;4998805;28;20808;-77
2024/02/20 07:39:16;;;;;;;1.90;1.50;;;15.70;76.80;;;;;;4996396;28;20042;-77
2024/02/20 07:41:41;;;;;;;1.52;1.42;;;15.70;76.70;;;;;;5017490;28;20179;-76
2024/02/20 07:44:07;;;;;;;1.60;1.50;;;15.70;76.80;;;;;;5004697;28;20117;-76
2024/02/20 07:46:33;;;;;;;1.55;1.27;;;15.60;76.90;;;;;;5004330;28;20129;-76
2024/02/20 07:48:59;;;;;;;1.38;1.27;;;15.60;77.40;;;;;;4990066;28;20041;-76
2024/02/20 07:51:25;;;;;;;2.25;1.25;;;15.50;77.00;;;;;;5019985;28;20440;-76
2024/02/20 07:53:51;;;;;;;1.60;1.50;;;15.50;77.90;;;;;;5017281;28;20136;-77
2024/02/20 07:56:23;;;;;;;1.33;1.23;;;15.50;77.40;;;;;;5003586;28;20053;-76
2024/02/20 07:58:49;;;;;;;1.90;1.13;;;15.50;77.10;;;;;;5004827;28;20054;-76
2024/02/20 08:01:14;;;;;;;1.65;1.38;;;15.50;77.10;;;;;;5016170;28;20049;-76
2024/02/20 08:03:40;;;;;;;2.08;1.13;;;15.50;77.10;;;;;;4972849;28;20048;-77
2024/02/20 08:06:06;;;;;;;1.20;1.10;;;15.50;77.00;;;;;;4973103;28;20096;-77
2024/02/20 08:08:31;;;;;;;1.33;1.17;;;15.50;76.90;;;;;;5004821;28;20080;-76
2024/02/20 08:10:57;;;;;;;1.48;1.20;;;15.50;76.90;;;;;;5005318;28;20036;-77
2024/02/20 08:13:24;;;;;;;1.38;1.27;;;15.50;76.90;;;;;;5017494;28;20038;-76
2024/02/20 08:15:49;;;;;;;1.40;1.20;;;15.50;77.00;;;;;;5005673;28;20022;-77
2024/02/20 08:18:15;;;;;;;1.40;1.30;;;15.50;76.90;;;;;;5003917;28;20046;-76
2024/02/20 08:20:40;;;;;;;1.35;1.20;;;15.50;77.10;;;;;;5021140;28;20042;-76
2024/02/20 08:23:06;;;;;;;2.70;1.20;;;15.50;76.90;;;;;;5019673;28;20042;-76
2024/02/20 08:25:31;;;;;;;1.17;1.08;;;15.50;76.90;;;;;;5003282;28;20049;-76
2024/02/20 08:27:57;;;;;;;3.60;1.25;;;15.50;76.50;;;;;;4985070;28;20053;-76
2024/02/20 08:30:25;;;;;;;1.35;1.25;;;15.50;76.50;;;;;;5004539;28;20523;-76
2024/02/20 08:32:50;;;;;;;3.42;1.05;;;15.50;77.00;;;;;;5015633;28;20420;-77
2024/02/20 08:35:17;;;;;;;1.27;1.17;;;15.50;76.30;;;;;;5006529;28;20468;-76
2024/02/20 08:37:43;;;;;;;1.63;0.85;;;15.50;76.30;;;;;;4998922;28;20092;-76
2024/02/20 08:40:09;;;;;;;1.00;0.90;;;15.60;76.20;;;;;;5005987;28;20697;-76
2024/02/20 08:42:34;;;;;;;1.20;1.10;;;15.60;76.10;;;;;;4989431;28;20052;-76
2024/02/20 08:45:03;;;;;;;0.90;0.90;;;15.50;76.00;;;;;;5002037;28;20495;-77
2024/02/20 08:47:29;;;;;;;1.25;1.10;;;15.60;76.10;;;;;;5000683;28;20045;-76
2024/02/20 08:49:54;;;;;;;0.80;0.80;;;15.60;76.10;;;;;;5004309;28;20037;-77
2024/02/20 08:52:20;;;;;;;1.20;1.10;;;15.50;75.80;;;;;;5001854;28;20404;-76
2024/02/20 08:54:46;;;;;;;0.90;0.90;;;15.50;76.10;;;;;;4988743;28;20038;-76
2024/02/20 08:57:11;;;;;;;1.10;1.00;;;15.50;76.00;;;;;;4999037;28;20053;-77
2024/02/20 08:59:37;;;;;;;2.15;1.10;;;15.50;75.70;;;;;;5014474;28;20041;-76
2024/02/20 09:02:03;;;;;;;0.88;0.85;;;15.50;75.70;;;;;;5002566;28;20732;-76
2024/02/20 09:04:29;;;;;;;0.93;0.85;;;15.50;75.90;;;;;;5000058;28;20046;-76
2024/02/20 09:06:56;;;;;;;3.08;1.10;;;15.50;75.70;;;;;;4988751;28;20049;-77
2024/02/20 09:09:22;;;;;;;1.02;1.02;;;15.50;75.70;;;;;;4988059;28;20178;-76
2024/02/20 09:11:49;;;;;;;1.42;0.82;;;15.50;76.00;;;;;;4982923;28;20085;-76
2024/02/20 09:14:15;;;;;;;1.10;0.88;;;15.50;75.80;;;;;;5001878;28;20048;-77
2024/02/20 09:16:40;;;;;;;0.98;0.93;;;15.50;75.80;;;;;;5000812;28;20050;-76
2024/02/20 09:19:06;;;;;;;1.00;1.00;;;15.50;75.70;;;;;;5014414;28;20527;-76
2024/02/20 09:21:31;;;;;;;1.30;0.88;;;15.50;75.70;;;;;;5018386;28;20176;-76
2024/02/20 09:23:57;;;;;;;1.00;0.82;;;15.50;75.70;;;;;;5017981;28;20083;-77
2024/02/20 09:26:23;;;;;;;1.33;1.00;;;15.50;75.70;;;;;;5002525;28;20074;-77
2024/02/20 09:28:49;;;;;;;0.85;0.80;;;15.50;75.60;;;;;;5003870;28;20091;-77
2024/02/20 09:31:14;;;;;;;0.88;0.82;;;15.50;76.00;;;;;;4988225;28;20451;-76
2024/02/20 09:33:40;;;;;;;1.65;0.82;;;15.50;75.80;;;;;;4987740;28;20511;-76
2024/02/20 09:36:07;;;;;;;1.00;0.90;;;15.50;76.00;;;;;;5003367;28;20600;-76
2024/02/20 09:38:33;;;;;;;1.02;0.95;;;15.50;75.90;;;;;;5018342;28;20045;-76
2024/02/20 09:40:59;;;;;;;1.00;1.00;;;15.50;75.80;;;;;;4984941;28;20096;-77
2024/02/20 09:43:25;;;;;;;0.90;0.90;;;15.50;75.90;;;;;;5013344;28;20148;-76
2024/02/20 09:45:51;;;;;;;1.88;0.90;;;15.50;75.90;;;;;;4987942;28;20554;-77
2024/02/20 09:48:17;;;;;;;0.85;0.82;;;15.50;75.50;;;;;;4984436;28;20080;-76
2024/02/20 09:50:42;;;;;;;0.80;0.80;;;15.50;75.60;;;;;;5001703;28;20034;-76
2024/02/20 09:53:08;;;;;;;1.27;1.00;;;15.50;75.90;;;;;;5016634;28;20091;-77
2024/02/20 09:55:34;;;;;;;0.93;0.93;;;15.50;75.80;;;;;;5013882;28;20539;-76
2024/02/20 09:57:59;;;;;;;1.20;0.80;;;15.50;75.80;;;;;;4998004;28;20046;-77
2024/02/20 10:00:25;;;;;;;0.80;0.80;;;15.50;75.90;;;;;;4999893;28;20031;-77
2024/02/20 10:02:54;;;;;;;0.75;0.75;;;15.50;75.90;;;;;;5003655;28;20041;-78
2024/02/20 10:05:19;;;;;;;2.08;0.73;;;15.50;75.90;;;;;;5002156;28;20431;-76
2024/02/20 10:07:45;;;;;;;0.95;0.82;;;15.50;75.90;;;;;;4998717;28;20663;-76
2024/02/20 10:10:12;;;;;;;0.88;0.88;;;15.50;76.60;;;;;;5000151;28;20046;-77
2024/02/20 10:12:39;;;;;;;0.80;0.80;;;15.40;75.70;;;;;;4997854;28;20077;-76
2024/02/20 10:15:11;;;;;;;1.65;1.10;;;15.40;76.50;;;;;;5000654;28;20058;-76
2024/02/20 10:17:36;;;;;;;0.88;0.85;;;15.50;75.90;;;;;;5001574;28;20053;-76
2024/02/20 10:20:10;;;;;;;0.90;0.90;;;15.50;75.80;;;;;;4998862;28;20470;-77
2024/02/20 10:22:37;;;;;;;0.90;0.90;;;15.40;75.80;;;;;;4999387;28;20562;-77
2024/02/20 10:25:04;;;;;;;1.25;1.15;;;15.50;75.80;;;;;;5005107;28;20462;-77
2024/02/20 10:27:31;;;;;;;0.75;0.70;;;15.40;75.70;;;;;;5003962;28;20439;-76
2024/02/20 10:29:57;;;;;;;1.15;0.88;;;15.50;75.70;;;;;;4984643;28;20145;-77
2024/02/20 10:32:22;;;;;;;1.00;0.90;;;15.50;75.80;;;;;;5002757;28;20121;-77
2024/02/20 10:35:02;;;;;;;0.60;0.60;;;15.50;75.80;;;;;;4999256;28;20030;-76
2024/02/20 10:37:27;;;;;;;0.65;0.60;;;15.40;76.00;;;;;;5014617;28;20041;-76
2024/02/20 10:40:12;;;;;;;1.52;0.90;;;15.50;75.70;;;;;;5001290;28;20034;-79
2024/02/20 10:42:39;;;;;;;0.93;0.85;;;15.50;75.50;;;;;;5003447;28;20511;-76
2024/02/20 10:45:08;;;;;;;0.68;0.68;;;15.50;75.90;;;;;;5011547;28;20500;-77
2024/02/20 10:47:44;;;;;;;0.60;0.60;;;15.50;75.60;;;;;;4998998;28;20070;-76
2024/02/20 10:50:10;;;;;;;0.80;0.80;;;15.50;75.50;;;;;;4998806;28;20499;-76
2024/02/20 10:52:36;;;;;;;0.50;0.50;;;15.50;75.40;;;;;;5013937;28;20120;-76
2024/02/20 10:55:10;;;;;;;0.85;0.60;;;15.60;75.50;;;;;;5002893;28;20175;-77
2024/02/20 10:57:35;;;;;;;0.98;0.85;;;15.50;75.60;;;;;;4998229;28;20416;-76
2024/02/20 11:00:03;;;;;;;0.70;0.70;;;15.60;75.70;;;;;;5012065;28;20500;-77
2024/02/20 11:02:29;;;;;;;1.70;0.70;;;15.50;75.70;;;;;;4983501;28;20038;-76
2024/02/20 11:04:55;;;;;;;0.80;0.77;;;15.60;75.70;;;;;;4996117;28;20511;-77
2024/02/20 11:07:20;;;;;;;1.00;0.90;;;15.60;75.70;;;;;;5003844;28;20077;-76
2024/02/20 11:10:06;;;;;;;0.70;0.70;;;15.60;76.50;;;;;;4987106;28;20500;-77
2024/02/20 11:12:32;;;;;;;0.77;0.77;;;15.60;75.80;;;;;;4983739;28;20092;-76
2024/02/20 11:15:12;;;;;;;0.88;0.88;;;15.70;75.10;;;;;;5015973;28;20042;-77
2024/02/20 11:17:41;;;;;;;1.90;0.57;;;15.80;74.50;;;;;;5005231;28;20078;-76
2024/02/20 11:20:17;;;;;;;0.93;0.88;;;15.70;74.20;;;;;;5001864;28;20042;-76
2024/02/20 11:22:44;;;;;;;0.63;0.63;;;15.80;74.30;;;;;;5001122;28;20404;-76
2024/02/20 11:25:26;;;;;;;1.15;0.80;;;15.80;74.20;;;;;;5005470;28;20161;-76
2024/02/20 11:27:52;;;;;;;1.33;0.95;;;15.80;74.50;;;;;;5005776;28;20034;-76
2024/02/20 11:30:22;;;;;;;1.92;1.08;;;15.80;75.10;;;;;;5001247;28;20108;-76
2024/02/20 11:32:50;;;;;;;0.85;0.82;;;15.80;75.60;;;;;;4987573;28;20050;-76
2024/02/20 11:35:32;;;;;;;0.80;0.80;;;15.90;75.80;;;;;;5001544;28;20026;-75
2024/02/20 11:38:01;;;;;;;1.15;1.05;;;15.80;76.50;;;;;;5012087;28;20512;-77
2024/02/20 11:40:27;;;;;;;1.50;1.40;;;15.80;77.60;;;;;;5011048;28;20054;-76
2024/02/20 11:42:56;;;;;;;2.22;1.10;;;15.70;79.70;;;;;;5003223;28;20542;-76
2024/02/20 11:45:28;;;;;;;1.80;0.90;;;15.70;79.40;;;;;;4986761;28;20138;-76
2024/02/20 11:48:10;;;;;;;0.82;0.70;;;15.70;79.40;;;;;;4997325;28;20453;-76
2024/02/20 11:50:37;;;;;;;1.05;0.80;;;15.70;78.60;;;;;;5001414;28;20133;-76
2024/02/20 11:53:08;;;;;;;0.65;0.60;;;15.80;78.40;;;;;;5002048;28;20968;-76
2024/02/20 11:55:34;;;;;;;0.93;0.60;;;15.80;77.90;;;;;;5000917;28;20070;-76
2024/02/20 11:58:01;;;;;;;0.70;0.50;;;15.80;77.30;;;;;;4999850;28;20049;-76
2024/02/20 12:00:27;;;;;;;1.02;0.47;;;15.80;77.00;;;;;;5001470;28;20049;-76
2024/02/20 12:02:53;;;;;;;2.03;0.50;;;15.80;76.90;;;;;;4994900;28;20132;-76
2024/02/20 12:05:26;;;;;;;0.60;0.52;;;15.80;76.70;;;;;;5001434;28;20464;-76
2024/02/20 12:07:52;;;;;;;0.40;0.40;;;15.80;76.60;;;;;;4999963;28;20074;-76
2024/02/20 12:10:18;;;;;;;0.40;0.40;;;15.80;76.30;;;;;;5009556;28;20081;-76
2024/02/20 12:12:44;;;;;;;0.50;0.50;;;15.90;76.10;;;;;;4986525;28;20054;-76
2024/02/20 12:15:11;;;;;;;0.68;0.52;;;15.80;76.10;;;;;;5001720;28;20535;-76
2024/02/20 12:17:46;;;;;;;0.50;0.50;;;15.80;76.10;;;;;;4984297;28;20096;-76
2024/02/20 12:20:13;;;;;;;0.60;0.60;;;15.70;75.90;;;;;;5019772;28;20052;-76
2024/02/20 12:22:40;;;;;;;0.40;0.30;;;15.80;75.60;;;;;;5030583;28;20554;-77
2024/02/20 12:25:09;;;;;;;0.50;0.50;;;15.80;75.70;;;;;;5019339;28;20050;-76
2024/02/20 12:27:35;;;;;;;0.55;0.55;;;15.80;75.60;;;;;;5001999;28;20053;-76
2024/02/20 12:30:01;;;;;;;0.43;0.43;;;15.80;75.80;;;;;;5005290;28;20060;-77
2024/02/20 12:32:27;;;;;;;0.40;0.40;;;15.80;75.60;;;;;;5003399;28;20403;-76
2024/02/20 12:34:53;;;;;;;0.30;0.30;;;15.80;75.50;;;;;;4985573;28;20042;-76
2024/02/20 12:37:20;;;;;;;0.50;0.50;;;15.80;75.60;;;;;;4984280;28;20034;-76
2024/02/20 12:39:46;;;;;;;1.67;0.30;;;15.80;76.30;;;;;;4990478;28;20484;-76
2024/02/20 12:42:12;;;;;;;0.50;0.50;;;15.80;76.10;;;;;;5016540;28;20082;-78